sensor_id;sensor_type;location;lat;lon;timestamp;pressure;altitude;pressure_sealevel;temperature;humidity
5609;BME280;2826;51.354;9.588;2023-06-14T00:01:10;98095.13;;;19.13;39.97
5609;BME280;2826;51.354;9.588;2023-06-14T00:03:38;98087.00;;;19.05;40.15
5609;BME280;2826;51.354;9.588;2023-06-14T00:06:05;98093.19;;;19.04;40.41
5609;BME280;2826;51.354;9.588;2023-06-14T00:08:33;98091.75;;;19.00;40.14
5609;BME280;2826;51.354;9.588;2023-06-14T00:11:00;98086.84;;;18.95;40.59
5609;BME280;2826;51.354;9.588;2023-06-14T00:13:27;98094.84;;;18.93;40.38
5609;BME280;2826;51.354;9.588;2023-06-14T00:15:53;98106.75;;;18.86;40.64
5609;BME280;2826;51.354;9.588;2023-06-14T00:18:20;98098.13;;;18.73;40.79
5609;BME280;2826;51.354;9.588;2023-06-14T00:20:49;98105.25;;;18.59;41.13
5609;BME280;2826;51.354;9.588;2023-06-14T00:23:16;98110.56;;;18.46;41.37
5609;BME280;2826;51.354;9.588;2023-06-14T00:25:44;98106.31;;;18.32;42.25
5609;BME280;2826;51.354;9.588;2023-06-14T00:28:10;98109.22;;;18.16;42.46
5609;BME280;2826;51.354;9.588;2023-06-14T00:30:37;98109.84;;;18.07;42.53
5609;BME280;2826;51.354;9.588;2023-06-14T00:33:04;98119.84;;;18.01;42.85
5609;BME280;2826;51.354;9.588;2023-06-14T00:35:30;98118.59;;;17.94;43.07
5609;BME280;2826;51.354;9.588;2023-06-14T00:37:56;98121.78;;;17.86;43.01
5609;BME280;2826;51.354;9.588;2023-06-14T00:40:23;98117.81;;;17.68;43.59
5609;BME280;2826;51.354;9.588;2023-06-14T00:42:51;98108.91;;;17.57;44.05
5609;BME280;2826;51.354;9.588;2023-06-14T00:45:17;98119.94;;;17.49;44.04
5609;BME280;2826;51.354;9.588;2023-06-14T00:47:46;98112.38;;;17.32;44.64
5609;BME280;2826;51.354;9.588;2023-06-14T00:50:15;98118.25;;;17.22;44.89
5609;BME280;2826;51.354;9.588;2023-06-14T00:52:42;98122.03;;;17.18;45.16
5609;BME280;2826;51.354;9.588;2023-06-14T00:55:09;98123.06;;;17.16;45.08
5609;BME280;2826;51.354;9.588;2023-06-14T00:57:35;98118.88;;;17.13;45.16
5609;BME280;2826;51.354;9.588;2023-06-14T01:00:08;98115.22;;;17.16;45.46
5609;BME280;2826;51.354;9.588;2023-06-14T01:02:35;98115.31;;;17.14;45.07
5609;BME280;2826;51.354;9.588;2023-06-14T01:05:03;98121.50;;;17.13;45.23
5609;BME280;2826;51.354;9.588;2023-06-14T01:07:41;98118.88;;;17.13;45.68
5609;BME280;2826;51.354;9.588;2023-06-14T01:10:19;98126.94;;;17.10;45.63
5609;BME280;2826;51.354;9.588;2023-06-14T01:12:52;98118.47;;;17.06;45.56
5609;BME280;2826;51.354;9.588;2023-06-14T01:15:24;98112.75;;;17.00;45.90
5609;BME280;2826;51.354;9.588;2023-06-14T01:17:51;98115.59;;;16.96;46.11
5609;BME280;2826;51.354;9.588;2023-06-14T01:20:19;98127.63;;;16.86;46.55
5609;BME280;2826;51.354;9.588;2023-06-14T01:22:52;98124.56;;;16.79;46.68
5609;BME280;2826;51.354;9.588;2023-06-14T01:25:20;98125.53;;;16.78;46.71
5609;BME280;2826;51.354;9.588;2023-06-14T01:27:48;98120.56;;;16.74;46.94
5609;BME280;2826;51.354;9.588;2023-06-14T01:30:17;98119.19;;;16.68;47.00
5609;BME280;2826;51.354;9.588;2023-06-14T01:32:46;98121.09;;;16.66;47.38
5609;BME280;2826;51.354;9.588;2023-06-14T01:35:13;98122.31;;;16.60;47.39
5609;BME280;2826;51.354;9.588;2023-06-14T01:37:41;98121.03;;;16.53;47.56
5609;BME280;2826;51.354;9.588;2023-06-14T01:40:11;98122.72;;;16.54;47.46
5609;BME280;2826;51.354;9.588;2023-06-14T01:42:39;98120.31;;;16.51;47.69
5609;BME280;2826;51.354;9.588;2023-06-14T01:45:07;98121.44;;;16.46;48.05
5609;BME280;2826;51.354;9.588;2023-06-14T01:47:36;98124.25;;;16.43;48.27
5609;BME280;2826;51.354;9.588;2023-06-14T01:50:03;98125.94;;;16.44;48.09
5609;BME280;2826;51.354;9.588;2023-06-14T01:52:30;98121.63;;;16.43;48.35
5609;BME280;2826;51.354;9.588;2023-06-14T01:54:56;98120.72;;;16.44;48.81
5609;BME280;2826;51.354;9.588;2023-06-14T01:57:28;98118.09;;;16.44;48.64
5609;BME280;2826;51.354;9.588;2023-06-14T01:59:55;98098.69;;;16.34;48.82
5609;BME280;2826;51.354;9.588;2023-06-14T02:02:22;98115.75;;;16.40;48.79
5609;BME280;2826;51.354;9.588;2023-06-14T02:04:49;98120.38;;;16.36;49.33
5609;BME280;2826;51.354;9.588;2023-06-14T02:07:15;98116.91;;;16.36;49.30
5609;BME280;2826;51.354;9.588;2023-06-14T02:09:42;98109.75;;;16.25;49.63
5609;BME280;2826;51.354;9.588;2023-06-14T02:12:09;98120.84;;;16.28;49.66
5609;BME280;2826;51.354;9.588;2023-06-14T02:14:37;98119.47;;;16.23;49.87
5609;BME280;2826;51.354;9.588;2023-06-14T02:17:04;98126.38;;;16.24;49.62
5609;BME280;2826;51.354;9.588;2023-06-14T02:19:32;98125.00;;;16.18;49.92
5609;BME280;2826;51.354;9.588;2023-06-14T02:21:58;98127.16;;;16.11;50.31
5609;BME280;2826;51.354;9.588;2023-06-14T02:24:25;98123.06;;;16.07;50.09
5609;BME280;2826;51.354;9.588;2023-06-14T02:26:52;98122.50;;;16.02;50.21
5609;BME280;2826;51.354;9.588;2023-06-14T02:29:18;98130.25;;;16.03;50.45
5609;BME280;2826;51.354;9.588;2023-06-14T02:31:47;98131.94;;;16.04;50.29
5609;BME280;2826;51.354;9.588;2023-06-14T02:34:15;98133.72;;;16.04;50.35
5609;BME280;2826;51.354;9.588;2023-06-14T02:36:42;98138.19;;;16.02;50.92
5609;BME280;2826;51.354;9.588;2023-06-14T02:39:09;98132.97;;;16.02;50.77
5609;BME280;2826;51.354;9.588;2023-06-14T02:41:35;98135.59;;;16.02;50.44
5609;BME280;2826;51.354;9.588;2023-06-14T02:44:03;98133.81;;;16.02;50.67
5609;BME280;2826;51.354;9.588;2023-06-14T02:46:31;98153.88;;;16.02;50.85
5609;BME280;2826;51.354;9.588;2023-06-14T02:48:59;98135.50;;;16.03;50.41
5609;BME280;2826;51.354;9.588;2023-06-14T02:51:26;98139.22;;;15.99;50.84
5609;BME280;2826;51.354;9.588;2023-06-14T02:53:52;98135.13;;;15.95;50.78
5609;BME280;2826;51.354;9.588;2023-06-14T02:56:19;98130.13;;;15.90;51.21
5609;BME280;2826;51.354;9.588;2023-06-14T02:58:48;98125.69;;;15.78;51.59
5609;BME280;2826;51.354;9.588;2023-06-14T03:01:17;98136.53;;;15.86;51.46
5609;BME280;2826;51.354;9.588;2023-06-14T03:03:46;98140.81;;;15.87;51.39
5609;BME280;2826;51.354;9.588;2023-06-14T03:06:14;98134.63;;;15.88;51.24
5609;BME280;2826;51.354;9.588;2023-06-14T03:08:44;98141.75;;;15.86;51.61
5609;BME280;2826;51.354;9.588;2023-06-14T03:11:15;98135.66;;;15.86;51.42
5609;BME280;2826;51.354;9.588;2023-06-14T03:13:42;98139.69;;;15.91;51.20
5609;BME280;2826;51.354;9.588;2023-06-14T03:16:10;98149.38;;;15.89;51.74
5609;BME280;2826;51.354;9.588;2023-06-14T03:18:38;98146.88;;;15.88;51.67
5609;BME280;2826;51.354;9.588;2023-06-14T03:21:06;98141.53;;;15.89;51.41
5609;BME280;2826;51.354;9.588;2023-06-14T03:23:38;98140.41;;;15.93;51.35
5609;BME280;2826;51.354;9.588;2023-06-14T03:26:04;98141.34;;;15.92;51.50
5609;BME280;2826;51.354;9.588;2023-06-14T03:28:32;98139.78;;;15.90;51.56
5609;BME280;2826;51.354;9.588;2023-06-14T03:30:59;98145.94;;;15.89;51.68
5609;BME280;2826;51.354;9.588;2023-06-14T03:33:30;98145.09;;;15.88;51.50
5609;BME280;2826;51.354;9.588;2023-06-14T03:35:57;98146.13;;;15.86;51.73
5609;BME280;2826;51.354;9.588;2023-06-14T03:38:23;98153.34;;;15.82;52.16
5609;BME280;2826;51.354;9.588;2023-06-14T03:40:51;98145.66;;;15.79;52.23
5609;BME280;2826;51.354;9.588;2023-06-14T03:43:18;98147.44;;;15.78;52.34
5609;BME280;2826;51.354;9.588;2023-06-14T03:45:45;98148.38;;;15.77;52.37
5609;BME280;2826;51.354;9.588;2023-06-14T03:48:11;98149.59;;;15.72;52.82
5609;BME280;2826;51.354;9.588;2023-06-14T03:50:38;98154.72;;;15.73;53.10
5609;BME280;2826;51.354;9.588;2023-06-14T03:53:05;98157.25;;;15.75;53.10
5609;BME280;2826;51.354;9.588;2023-06-14T03:55:34;98171.06;;;15.77;53.40
5609;BME280;2826;51.354;9.588;2023-06-14T03:58:05;98168.16;;;15.81;53.12
5609;BME280;2826;51.354;9.588;2023-06-14T04:00:32;98169.66;;;15.86;53.29
5609;BME280;2826;51.354;9.588;2023-06-14T04:02:58;98180.38;;;15.81;53.25
5609;BME280;2826;51.354;9.588;2023-06-14T04:05:24;98172.94;;;15.75;53.78
5609;BME280;2826;51.354;9.588;2023-06-14T04:07:53;98178.72;;;15.80;53.64
5609;BME280;2826;51.354;9.588;2023-06-14T04:10:21;98185.44;;;15.84;53.37
5609;BME280;2826;51.354;9.588;2023-06-14T04:12:47;98188.22;;;15.81;53.56
5609;BME280;2826;51.354;9.588;2023-06-14T04:15:15;98190.03;;;15.80;53.73
5609;BME280;2826;51.354;9.588;2023-06-14T04:17:41;98196.44;;;15.89;53.71
5609;BME280;2826;51.354;9.588;2023-06-14T04:20:09;98198.13;;;15.90;53.65
5609;BME280;2826;51.354;9.588;2023-06-14T04:22:36;98195.41;;;15.92;53.71
5609;BME280;2826;51.354;9.588;2023-06-14T04:25:05;98204.69;;;15.98;53.94
5609;BME280;2826;51.354;9.588;2023-06-14T04:27:33;98200.22;;;16.00;53.63
5609;BME280;2826;51.354;9.588;2023-06-14T04:30:01;98199.13;;;16.04;53.53
5609;BME280;2826;51.354;9.588;2023-06-14T04:32:38;98212.75;;;16.09;53.61
5609;BME280;2826;51.354;9.588;2023-06-14T04:35:10;98207.59;;;16.08;53.86
5609;BME280;2826;51.354;9.588;2023-06-14T04:37:39;98212.53;;;16.12;53.49
5609;BME280;2826;51.354;9.588;2023-06-14T04:40:09;98207.13;;;16.15;53.67
5609;BME280;2826;51.354;9.588;2023-06-14T04:42:37;98211.94;;;16.22;53.51
5609;BME280;2826;51.354;9.588;2023-06-14T04:45:08;98211.69;;;16.26;53.42
5609;BME280;2826;51.354;9.588;2023-06-14T04:47:39;98218.59;;;16.27;53.49
5609;BME280;2826;51.354;9.588;2023-06-14T04:50:08;98220.94;;;16.32;53.58
5609;BME280;2826;51.354;9.588;2023-06-14T04:52:35;98221.28;;;16.40;53.80
5609;BME280;2826;51.354;9.588;2023-06-14T04:55:04;98227.25;;;16.42;53.13
5609;BME280;2826;51.354;9.588;2023-06-14T04:57:31;98222.66;;;16.46;53.45
5609;BME280;2826;51.354;9.588;2023-06-14T04:59:59;98221.34;;;16.53;53.37
5609;BME280;2826;51.354;9.588;2023-06-14T05:02:27;98214.34;;;16.54;52.94
5609;BME280;2826;51.354;9.588;2023-06-14T05:04:57;98220.75;;;16.63;53.08
5609;BME280;2826;51.354;9.588;2023-06-14T05:07:24;98227.06;;;16.73;52.63
5609;BME280;2826;51.354;9.588;2023-06-14T05:09:51;98230.44;;;16.75;52.83
5609;BME280;2826;51.354;9.588;2023-06-14T05:12:18;98226.78;;;16.78;52.59
5609;BME280;2826;51.354;9.588;2023-06-14T05:14:46;98231.06;;;16.79;52.73
5609;BME280;2826;51.354;9.588;2023-06-14T05:17:14;98230.03;;;16.81;53.03
5609;BME280;2826;51.354;9.588;2023-06-14T05:19:42;98224.16;;;16.78;53.03
5609;BME280;2826;51.354;9.588;2023-06-14T05:22:10;98235.28;;;16.81;52.73
5609;BME280;2826;51.354;9.588;2023-06-14T05:24:37;98235.00;;;16.86;52.74
5609;BME280;2826;51.354;9.588;2023-06-14T05:27:03;98242.53;;;16.91;52.74
5609;BME280;2826;51.354;9.588;2023-06-14T05:29:30;98243.28;;;16.93;52.67
5609;BME280;2826;51.354;9.588;2023-06-14T05:31:57;98232.78;;;17.07;52.42
5609;BME280;2826;51.354;9.588;2023-06-14T05:34:24;98240.34;;;17.12;52.20
5609;BME280;2826;51.354;9.588;2023-06-14T05:36:50;98230.16;;;17.07;52.41
5609;BME280;2826;51.354;9.588;2023-06-14T05:39:19;98222.72;;;17.14;52.18
5609;BME280;2826;51.354;9.588;2023-06-14T05:41:45;98240.28;;;17.27;52.05
5609;BME280;2826;51.354;9.588;2023-06-14T05:44:12;98246.78;;;17.34;52.19
5609;BME280;2826;51.354;9.588;2023-06-14T05:46:38;98255.47;;;17.34;52.27
5609;BME280;2826;51.354;9.588;2023-06-14T05:49:05;98251.94;;;17.48;51.81
5609;BME280;2826;51.354;9.588;2023-06-14T05:51:32;98247.03;;;17.57;51.88
5609;BME280;2826;51.354;9.588;2023-06-14T05:53:59;98256.91;;;17.66;51.50
5609;BME280;2826;51.354;9.588;2023-06-14T05:56:27;98257.94;;;17.76;51.39
5609;BME280;2826;51.354;9.588;2023-06-14T05:58:53;98255.22;;;17.78;51.49
5609;BME280;2826;51.354;9.588;2023-06-14T06:01:20;98260.03;;;17.84;51.36
5609;BME280;2826;51.354;9.588;2023-06-14T06:03:46;98258.25;;;17.85;51.73
5609;BME280;2826;51.354;9.588;2023-06-14T06:06:13;98271.19;;;17.88;50.94
5609;BME280;2826;51.354;9.588;2023-06-14T06:08:40;98265.38;;;17.83;51.40
5609;BME280;2826;51.354;9.588;2023-06-14T06:11:06;98273.88;;;17.99;50.71
5609;BME280;2826;51.354;9.588;2023-06-14T06:13:34;98262.88;;;17.94;50.75
5609;BME280;2826;51.354;9.588;2023-06-14T06:16:01;98259.31;;;17.95;50.29
5609;BME280;2826;51.354;9.588;2023-06-14T06:18:28;98270.22;;;18.02;50.54
5609;BME280;2826;51.354;9.588;2023-06-14T06:20:55;98269.72;;;18.10;50.50
5609;BME280;2826;51.354;9.588;2023-06-14T06:23:21;98267.53;;;18.17;50.60
5609;BME280;2826;51.354;9.588;2023-06-14T06:25:47;98261.28;;;18.31;50.08
5609;BME280;2826;51.354;9.588;2023-06-14T06:28:14;98269.03;;;18.45;49.98
5609;BME280;2826;51.354;9.588;2023-06-14T06:30:42;98267.72;;;18.64;49.29
5609;BME280;2826;51.354;9.588;2023-06-14T06:33:09;98239.94;;;18.48;49.37
5609;BME280;2826;51.354;9.588;2023-06-14T06:35:35;98268.75;;;18.74;49.49
5609;BME280;2826;51.354;9.588;2023-06-14T06:38:02;98267.84;;;18.87;49.27
5609;BME280;2826;51.354;9.588;2023-06-14T06:40:29;98270.22;;;19.03;48.88
5609;BME280;2826;51.354;9.588;2023-06-14T06:42:55;98274.91;;;19.11;48.45
5609;BME280;2826;51.354;9.588;2023-06-14T06:45:26;98275.19;;;19.19;47.58
5609;BME280;2826;51.354;9.588;2023-06-14T06:47:58;98285.94;;;19.16;47.91
5609;BME280;2826;51.354;9.588;2023-06-14T06:50:25;98280.94;;;19.24;47.54
5609;BME280;2826;51.354;9.588;2023-06-14T06:52:52;98286.97;;;19.38;47.47
5609;BME280;2826;51.354;9.588;2023-06-14T06:55:19;98292.00;;;19.41;47.25
5609;BME280;2826;51.354;9.588;2023-06-14T06:57:45;98283.06;;;19.55;47.16
5609;BME280;2826;51.354;9.588;2023-06-14T07:00:12;98290.69;;;19.71;46.76
5609;BME280;2826;51.354;9.588;2023-06-14T07:02:39;98290.78;;;19.81;46.52
5609;BME280;2826;51.354;9.588;2023-06-14T07:05:07;98283.63;;;19.83;46.69
5609;BME280;2826;51.354;9.588;2023-06-14T07:07:34;98283.25;;;19.88;46.14
5609;BME280;2826;51.354;9.588;2023-06-14T07:10:00;98293.94;;;19.97;46.08
5609;BME280;2826;51.354;9.588;2023-06-14T07:12:29;98300.91;;;20.10;46.20
5609;BME280;2826;51.354;9.588;2023-06-14T07:14:57;98254.56;;;19.96;46.10
5609;BME280;2826;51.354;9.588;2023-06-14T07:17:23;98299.59;;;20.27;45.40
5609;BME280;2826;51.354;9.588;2023-06-14T07:19:50;98302.47;;;20.35;45.20
5609;BME280;2826;51.354;9.588;2023-06-14T07:22:19;98300.78;;;20.57;44.61
5609;BME280;2826;51.354;9.588;2023-06-14T07:24:46;98302.19;;;20.73;44.84
5609;BME280;2826;51.354;9.588;2023-06-14T07:27:12;98312.38;;;20.78;44.12
5609;BME280;2826;51.354;9.588;2023-06-14T07:29:39;98219.19;;;20.23;44.26
5609;BME280;2826;51.354;9.588;2023-06-14T07:32:06;98306.53;;;20.74;44.27
5609;BME280;2826;51.354;9.588;2023-06-14T07:34:33;98311.50;;;21.00;44.36
5609;BME280;2826;51.354;9.588;2023-06-14T07:37:00;98307.44;;;20.96;44.17
5609;BME280;2826;51.354;9.588;2023-06-14T07:39:27;98307.94;;;21.01;44.36
5609;BME280;2826;51.354;9.588;2023-06-14T07:41:54;98309.59;;;21.02;43.63
5609;BME280;2826;51.354;9.588;2023-06-14T07:44:21;98314.06;;;21.23;43.76
5609;BME280;2826;51.354;9.588;2023-06-14T07:46:47;98307.78;;;21.35;43.00
5609;BME280;2826;51.354;9.588;2023-06-14T07:49:15;98298.50;;;21.52;42.41
5609;BME280;2826;51.354;9.588;2023-06-14T07:51:42;98311.94;;;21.71;42.20
5609;BME280;2826;51.354;9.588;2023-06-14T07:54:09;98314.75;;;21.90;43.17
5609;BME280;2826;51.354;9.588;2023-06-14T07:56:37;98319.28;;;22.10;42.39
5609;BME280;2826;51.354;9.588;2023-06-14T07:59:04;98317.84;;;22.27;42.55
5609;BME280;2826;51.354;9.588;2023-06-14T08:01:31;98314.94;;;22.61;42.76
5609;BME280;2826;51.354;9.588;2023-06-14T08:03:58;98313.63;;;22.96;42.12
5609;BME280;2826;51.354;9.588;2023-06-14T08:06:25;98316.69;;;23.12;40.85
5609;BME280;2826;51.354;9.588;2023-06-14T08:08:51;98316.56;;;23.13;41.03
5609;BME280;2826;51.354;9.588;2023-06-14T08:11:18;98320.16;;;23.02;40.36
5609;BME280;2826;51.354;9.588;2023-06-14T08:13:46;98318.47;;;22.91;40.35
5609;BME280;2826;51.354;9.588;2023-06-14T08:16:12;98317.66;;;22.91;40.94
5609;BME280;2826;51.354;9.588;2023-06-14T08:18:39;98321.28;;;23.19;39.96
5609;BME280;2826;51.354;9.588;2023-06-14T08:21:05;98317.69;;;23.30;39.10
5609;BME280;2826;51.354;9.588;2023-06-14T08:23:32;98315.19;;;23.29;39.05
5609;BME280;2826;51.354;9.588;2023-06-14T08:25:59;98319.34;;;23.12;39.13
5609;BME280;2826;51.354;9.588;2023-06-14T08:28:27;98316.97;;;23.18;39.41
5609;BME280;2826;51.354;9.588;2023-06-14T08:30:54;98318.25;;;23.24;40.08
5609;BME280;2826;51.354;9.588;2023-06-14T08:33:21;98324.13;;;23.47;39.40
5609;BME280;2826;51.354;9.588;2023-06-14T08:35:47;98320.50;;;23.39;38.62
5609;BME280;2826;51.354;9.588;2023-06-14T08:38:14;98320.34;;;23.60;39.67
5609;BME280;2826;51.354;9.588;2023-06-14T08:40:41;98320.22;;;23.61;38.64
5609;BME280;2826;51.354;9.588;2023-06-14T08:43:08;98321.47;;;23.67;38.02
5609;BME280;2826;51.354;9.588;2023-06-14T08:45:35;98322.44;;;23.46;38.53
5609;BME280;2826;51.354;9.588;2023-06-14T08:48:03;98327.75;;;23.56;39.01
5609;BME280;2826;51.354;9.588;2023-06-14T08:50:31;98327.59;;;23.68;39.20
5609;BME280;2826;51.354;9.588;2023-06-14T08:53:00;98328.09;;;24.01;38.83
5609;BME280;2826;51.354;9.588;2023-06-14T08:55:28;98326.25;;;24.21;38.08
5609;BME280;2826;51.354;9.588;2023-06-14T08:57:56;98330.00;;;24.29;37.40
5609;BME280;2826;51.354;9.588;2023-06-14T09:00:24;98324.75;;;24.47;37.54
5609;BME280;2826;51.354;9.588;2023-06-14T09:02:51;98317.34;;;24.50;37.23
5609;BME280;2826;51.354;9.588;2023-06-14T09:05:23;98325.31;;;24.50;37.11
5609;BME280;2826;51.354;9.588;2023-06-14T09:07:50;98325.44;;;24.77;37.44
5609;BME280;2826;51.354;9.588;2023-06-14T09:10:17;98322.00;;;24.95;36.43
5609;BME280;2826;51.354;9.588;2023-06-14T09:12:43;98321.44;;;25.19;35.73
5609;BME280;2826;51.354;9.588;2023-06-14T09:15:10;98317.28;;;25.35;35.44
5609;BME280;2826;51.354;9.588;2023-06-14T09:17:38;98325.19;;;25.53;35.20
5609;BME280;2826;51.354;9.588;2023-06-14T09:20:06;98327.72;;;25.73;35.24
5609;BME280;2826;51.354;9.588;2023-06-14T09:22:37;98323.16;;;25.47;34.54
5609;BME280;2826;51.354;9.588;2023-06-14T09:25:05;98276.47;;;24.71;33.97
5609;BME280;2826;51.354;9.588;2023-06-14T09:27:32;98325.09;;;24.62;34.91
5609;BME280;2826;51.354;9.588;2023-06-14T09:29:59;98333.59;;;24.65;35.03
5609;BME280;2826;51.354;9.588;2023-06-14T09:32:25;98341.88;;;24.52;35.62
5609;BME280;2826;51.354;9.588;2023-06-14T09:34:52;98337.84;;;24.48;34.82
5609;BME280;2826;51.354;9.588;2023-06-14T09:37:29;98332.91;;;24.35;35.03
5609;BME280;2826;51.354;9.588;2023-06-14T09:40:04;98336.28;;;24.56;35.06
5609;BME280;2826;51.354;9.588;2023-06-14T09:42:32;98333.34;;;24.59;34.72
5609;BME280;2826;51.354;9.588;2023-06-14T09:45:02;98336.66;;;24.71;35.50
5609;BME280;2826;51.354;9.588;2023-06-14T09:47:30;98345.03;;;24.94;35.20
5609;BME280;2826;51.354;9.588;2023-06-14T09:49:56;98339.59;;;24.96;34.60
5609;BME280;2826;51.354;9.588;2023-06-14T09:52:25;98332.28;;;25.26;34.69
5609;BME280;2826;51.354;9.588;2023-06-14T09:54:52;98327.81;;;25.63;33.29
5609;BME280;2826;51.354;9.588;2023-06-14T09:57:23;98340.06;;;25.45;32.98
5609;BME280;2826;51.354;9.588;2023-06-14T09:59:53;98341.75;;;25.28;32.56
5609;BME280;2826;51.354;9.588;2023-06-14T10:02:23;98341.88;;;24.80;33.33
5609;BME280;2826;51.354;9.588;2023-06-14T10:04:56;98326.75;;;24.63;33.77
5609;BME280;2826;51.354;9.588;2023-06-14T10:07:26;98338.81;;;24.57;34.47
5609;BME280;2826;51.354;9.588;2023-06-14T10:09:57;98290.03;;;24.40;34.48
5609;BME280;2826;51.354;9.588;2023-06-14T10:12:25;98333.84;;;24.72;34.06
5609;BME280;2826;51.354;9.588;2023-06-14T10:14:53;98333.75;;;24.64;34.46
5609;BME280;2826;51.354;9.588;2023-06-14T10:17:28;98330.50;;;24.42;34.83
5609;BME280;2826;51.354;9.588;2023-06-14T10:20:10;98323.06;;;24.46;34.97
5609;BME280;2826;51.354;9.588;2023-06-14T10:22:43;98332.38;;;24.60;34.94
5609;BME280;2826;51.354;9.588;2023-06-14T10:25:13;98327.69;;;25.00;34.01
5609;BME280;2826;51.354;9.588;2023-06-14T10:27:55;98316.81;;;25.57;33.79
5609;BME280;2826;51.354;9.588;2023-06-14T10:30:28;98328.78;;;26.15;32.05
5609;BME280;2826;51.354;9.588;2023-06-14T10:33:03;98326.53;;;26.55;31.58
5609;BME280;2826;51.354;9.588;2023-06-14T10:35:31;98326.09;;;26.68;31.66
5609;BME280;2826;51.354;9.588;2023-06-14T10:38:06;98327.19;;;27.00;31.21
5609;BME280;2826;51.354;9.588;2023-06-14T10:40:34;98306.78;;;27.42;31.34
5609;BME280;2826;51.354;9.588;2023-06-14T10:43:20;98307.28;;;27.29;30.90
5609;BME280;2826;51.354;9.588;2023-06-14T10:46:15;98311.41;;;27.15;30.55
5609;BME280;2826;51.354;9.588;2023-06-14T10:48:42;98311.25;;;27.17;29.85
5609;BME280;2826;51.354;9.588;2023-06-14T10:51:16;98322.97;;;26.81;30.56
5609;BME280;2826;51.354;9.588;2023-06-14T10:53:46;98317.56;;;26.56;30.10
5609;BME280;2826;51.354;9.588;2023-06-14T10:56:29;98313.66;;;26.77;31.19
5609;BME280;2826;51.354;9.588;2023-06-14T10:58:58;98319.56;;;26.97;30.03
5609;BME280;2826;51.354;9.588;2023-06-14T11:01:32;98313.75;;;27.10;29.92
5609;BME280;2826;51.354;9.588;2023-06-14T11:04:07;98294.28;;;27.26;29.05
5609;BME280;2826;51.354;9.588;2023-06-14T11:06:46;98291.97;;;27.39;29.93
5609;BME280;2826;51.354;9.588;2023-06-14T11:09:43;98297.66;;;27.70;29.00
5609;BME280;2826;51.354;9.588;2023-06-14T11:12:15;98295.72;;;28.12;28.47
5609;BME280;2826;51.354;9.588;2023-06-14T11:14:47;98301.75;;;28.06;28.78
5609;BME280;2826;51.354;9.588;2023-06-14T11:17:14;98300.06;;;28.04;29.18
5609;BME280;2826;51.354;9.588;2023-06-14T11:19:40;98303.63;;;27.55;28.67
5609;BME280;2826;51.354;9.588;2023-06-14T11:22:07;98295.00;;;27.36;29.80
5609;BME280;2826;51.354;9.588;2023-06-14T11:24:34;98290.16;;;27.57;29.79
5609;BME280;2826;51.354;9.588;2023-06-14T11:27:01;98296.81;;;27.77;28.05
5609;BME280;2826;51.354;9.588;2023-06-14T11:29:29;98264.53;;;27.64;28.27
5609;BME280;2826;51.354;9.588;2023-06-14T11:31:56;98299.59;;;27.92;28.09
5609;BME280;2826;51.354;9.588;2023-06-14T11:34:24;98298.59;;;28.02;27.83
5609;BME280;2826;51.354;9.588;2023-06-14T11:36:51;98299.31;;;27.54;27.67
5609;BME280;2826;51.354;9.588;2023-06-14T11:39:24;98294.66;;;27.23;27.78
5609;BME280;2826;51.354;9.588;2023-06-14T11:41:50;98292.66;;;27.75;28.11
5609;BME280;2826;51.354;9.588;2023-06-14T11:44:17;98296.53;;;28.21;28.02
5609;BME280;2826;51.354;9.588;2023-06-14T11:46:44;98291.03;;;28.71;27.73
5609;BME280;2826;51.354;9.588;2023-06-14T11:49:12;98295.75;;;28.92;26.66
5609;BME280;2826;51.354;9.588;2023-06-14T11:51:39;98288.91;;;28.58;26.81
5609;BME280;2826;51.354;9.588;2023-06-14T11:54:06;98286.63;;;27.89;27.10
5609;BME280;2826;51.354;9.588;2023-06-14T11:56:34;98287.97;;;27.60;27.85
5609;BME280;2826;51.354;9.588;2023-06-14T11:59:02;98279.66;;;27.80;27.83
5609;BME280;2826;51.354;9.588;2023-06-14T12:01:31;98282.38;;;28.20;27.40
5609;BME280;2826;51.354;9.588;2023-06-14T12:03:59;98259.03;;;28.30;27.87
5609;BME280;2826;51.354;9.588;2023-06-14T12:06:27;98281.72;;;28.66;27.06
5609;BME280;2826;51.354;9.588;2023-06-14T12:08:58;98280.88;;;28.98;26.05
5609;BME280;2826;51.354;9.588;2023-06-14T12:11:32;98276.97;;;29.08;25.94
5609;BME280;2826;51.354;9.588;2023-06-14T12:13:59;98275.00;;;29.26;26.45
5609;BME280;2826;51.354;9.588;2023-06-14T12:16:30;98274.63;;;29.52;26.12
5609;BME280;2826;51.354;9.588;2023-06-14T12:19:00;98289.38;;;29.25;26.94
5609;BME280;2826;51.354;9.588;2023-06-14T12:21:28;98280.84;;;29.06;27.13
5609;BME280;2826;51.354;9.588;2023-06-14T12:23:55;98275.84;;;28.71;26.79
5609;BME280;2826;51.354;9.588;2023-06-14T12:26:24;98286.97;;;27.95;27.83
5609;BME280;2826;51.354;9.588;2023-06-14T12:28:51;98297.31;;;27.48;28.25
5609;BME280;2826;51.354;9.588;2023-06-14T12:31:18;98291.63;;;27.26;29.31
5609;BME280;2826;51.354;9.588;2023-06-14T12:33:45;98290.00;;;27.33;29.54
5609;BME280;2826;51.354;9.588;2023-06-14T12:36:14;98282.53;;;27.62;29.03
5609;BME280;2826;51.354;9.588;2023-06-14T12:38:42;98262.63;;;27.98;29.02
5609;BME280;2826;51.354;9.588;2023-06-14T12:41:09;98285.94;;;28.84;28.22
5609;BME280;2826;51.354;9.588;2023-06-14T12:43:35;98281.25;;;29.18;26.80
5609;BME280;2826;51.354;9.588;2023-06-14T12:46:02;98285.69;;;29.26;26.99
5609;BME280;2826;51.354;9.588;2023-06-14T12:48:28;98285.25;;;29.37;27.09
5609;BME280;2826;51.354;9.588;2023-06-14T12:50:56;98288.06;;;29.20;26.39
5609;BME280;2826;51.354;9.588;2023-06-14T12:53:23;98280.88;;;28.98;26.73
5609;BME280;2826;51.354;9.588;2023-06-14T12:55:51;98280.97;;;29.28;27.75
5609;BME280;2826;51.354;9.588;2023-06-14T12:58:18;98283.97;;;29.33;27.23
5609;BME280;2826;51.354;9.588;2023-06-14T13:00:45;98285.81;;;29.56;27.31
5609;BME280;2826;51.354;9.588;2023-06-14T13:03:11;98286.59;;;30.10;27.17
5609;BME280;2826;51.354;9.588;2023-06-14T13:05:39;98282.38;;;30.16;26.22
5609;BME280;2826;51.354;9.588;2023-06-14T13:08:07;98248.31;;;30.09;25.90
5609;BME280;2826;51.354;9.588;2023-06-14T13:10:34;98277.88;;;30.68;25.41
5609;BME280;2826;51.354;9.588;2023-06-14T13:13:02;98281.03;;;30.57;25.47
5609;BME280;2826;51.354;9.588;2023-06-14T13:15:29;98278.75;;;29.93;25.56
5609;BME280;2826;51.354;9.588;2023-06-14T13:17:56;98284.41;;;28.90;26.50
5609;BME280;2826;51.354;9.588;2023-06-14T13:20:22;98279.13;;;28.50;27.46
5609;BME280;2826;51.354;9.588;2023-06-14T13:22:49;98282.16;;;28.78;27.60
5609;BME280;2826;51.354;9.588;2023-06-14T13:25:15;98278.63;;;29.33;27.45
5609;BME280;2826;51.354;9.588;2023-06-14T13:27:42;98278.84;;;30.00;26.63